createdAt,value
2019-06-08T00:00:27.660Z,17.39
2019-06-08T00:02:57.802Z,17.38
2019-06-08T00:05:27.951Z,17.36
2019-06-08T00:07:58.087Z,17.35
2019-06-08T00:10:28.289Z,17.35
2019-06-08T00:12:58.430Z,17.36
2019-06-08T00:15:28.620Z,17.34
2019-06-08T00:17:59.527Z,17.32
2019-06-08T00:20:29.836Z,17.32
2019-06-08T00:22:59.978Z,17.34
2019-06-08T00:25:30.133Z,17.34
2019-06-08T00:28:00.279Z,17.27
2019-06-08T00:30:30.731Z,17.24
2019-06-08T00:33:00.927Z,17.17
2019-06-08T00:35:31.056Z,17.09
2019-06-08T00:38:01.256Z,17.02
2019-06-08T00:40:32.489Z,16.98
2019-06-08T00:43:02.639Z,16.94
2019-06-08T00:45:32.801Z,16.90
2019-06-08T00:48:02.937Z,16.86
2019-06-08T00:50:33.080Z,16.85
2019-06-08T00:53:03.267Z,16.83
2019-06-08T00:55:33.456Z,16.84
2019-06-08T00:58:03.595Z,16.80
2019-06-08T01:00:33.781Z,16.78
2019-06-08T01:03:03.940Z,16.65
2019-06-08T01:05:34.129Z,16.50
2019-06-08T01:08:04.405Z,16.44
2019-06-08T01:10:34.541Z,16.41
2019-06-08T01:13:04.683Z,16.22
2019-06-08T01:15:34.824Z,16.23
2019-06-08T01:18:04.960Z,16.16
2019-06-08T01:20:35.641Z,16.14
2019-06-08T01:23:05.767Z,16.19
2019-06-08T01:25:35.936Z,16.15
2019-06-08T01:28:06.048Z,16.14
2019-06-08T01:30:36.216Z,16.14
2019-06-08T01:33:06.347Z,16.04
2019-06-08T01:35:36.492Z,16.06
2019-06-08T01:38:06.652Z,16.18
2019-06-08T01:40:36.793Z,16.09
2019-06-08T01:43:06.947Z,16.12
2019-06-08T01:45:37.101Z,16.13
2019-06-08T01:48:19.527Z,16.08
2019-06-08T01:50:39.778Z,15.97
2019-06-08T01:53:09.918Z,15.88
2019-06-08T01:55:40.114Z,15.99
2019-06-08T01:58:10.259Z,15.95
2019-06-08T02:00:41.595Z,16.06
2019-06-08T02:03:12.106Z,16.17
2019-06-08T02:05:42.293Z,16.19
2019-06-08T02:08:12.440Z,16.21
2019-06-08T02:10:43.458Z,16.24
2019-06-08T02:13:13.721Z,16.14
2019-06-08T02:15:43.862Z,16.09
2019-06-08T02:18:14.000Z,16.20
2019-06-08T02:20:44.181Z,16.18
2019-06-08T02:23:14.308Z,16.19
2019-06-08T02:25:44.480Z,16.16
2019-06-08T02:28:14.717Z,16.30
2019-06-08T02:30:44.978Z,16.24
2019-06-08T02:33:15.088Z,16.37
2019-06-08T02:35:45.255Z,16.70
2019-06-08T02:38:15.387Z,17.06
2019-06-08T02:40:45.716Z,17.47
2019-06-08T02:43:15.822Z,17.92
2019-06-08T02:45:45.990Z,18.29
2019-06-08T02:48:16.233Z,18.74
2019-06-08T02:50:53.301Z,19.10
2019-06-08T02:53:25.876Z,19.43
2019-06-08T02:55:55.991Z,19.90
2019-06-08T02:58:26.326Z,20.22
2019-06-08T03:00:57.190Z,20.60
2019-06-08T03:03:29.613Z,20.83
2019-06-08T03:06:02.442Z,20.68
2019-06-08T03:08:38.983Z,20.42
2019-06-08T03:11:09.807Z,20.15
2019-06-08T03:13:42.515Z,19.74
2019-06-08T03:16:12.866Z,19.69
2019-06-08T03:18:43.000Z,19.50
2019-06-08T03:21:13.166Z,19.10
2019-06-08T03:23:43.608Z,18.95
2019-06-08T03:26:13.813Z,18.93
2019-06-08T03:28:44.477Z,18.68
2019-06-08T03:31:15.855Z,18.62
2019-06-08T03:33:54.493Z,18.68
2019-06-08T03:36:17.796Z,18.74
2019-06-08T03:38:49.003Z,18.87
2019-06-08T03:41:19.166Z,19.01
2019-06-08T03:43:49.319Z,18.83
2019-06-08T03:46:19.442Z,18.70
2019-06-08T03:48:49.576Z,18.56
2019-06-08T03:51:20.789Z,18.62
2019-06-08T03:53:50.927Z,18.54
2019-06-08T03:56:21.098Z,18.24
2019-06-08T03:58:51.224Z,18.19
2019-06-08T04:01:21.360Z,18.28
2019-06-08T04:03:51.496Z,18.50
2019-06-08T04:06:21.624Z,18.42
2019-06-08T04:08:52.826Z,18.48
2019-06-08T04:11:23.043Z,18.51
2019-06-08T04:13:53.350Z,18.68
2019-06-08T04:16:23.513Z,18.84
2019-06-08T04:18:53.624Z,18.79
2019-06-08T04:21:23.775Z,18.83
2019-06-08T04:23:53.901Z,18.89
2019-06-08T04:26:24.042Z,18.69
2019-06-08T04:28:54.174Z,18.53
2019-06-08T04:31:24.324Z,18.45
2019-06-08T04:33:54.461Z,18.35
2019-06-08T04:36:24.713Z,18.44
2019-06-08T04:38:54.853Z,18.55
2019-06-08T04:41:25.004Z,18.45
2019-06-08T04:43:55.127Z,18.43
2019-06-08T04:46:25.290Z,18.43
2019-06-08T04:48:55.433Z,18.54
2019-06-08T04:51:25.586Z,18.59
2019-06-08T04:53:55.743Z,18.58
2019-06-08T04:56:25.886Z,18.69
2019-06-08T04:58:56.032Z,18.68
2019-06-08T05:01:26.174Z,18.64
2019-06-08T05:03:56.314Z,18.66
2019-06-08T05:06:26.471Z,18.70
2019-06-08T05:08:56.633Z,18.76
2019-06-08T05:11:26.798Z,18.81
2019-06-08T05:13:57.288Z,18.73
2019-06-08T05:16:27.430Z,18.69
2019-06-08T05:18:57.578Z,18.45
2019-06-08T05:21:27.750Z,18.62
2019-06-08T05:23:59.067Z,18.59
2019-06-08T05:26:29.426Z,18.50
2019-06-08T05:28:59.578Z,18.61
2019-06-08T05:31:29.718Z,18.68
2019-06-08T05:33:59.876Z,18.72
2019-06-08T05:36:30.035Z,18.67
2019-06-08T05:39:00.174Z,18.82
2019-06-08T05:41:30.315Z,18.88
2019-06-08T05:44:00.459Z,18.89
2019-06-08T05:46:30.597Z,19.02
2019-06-08T05:49:01.857Z,19.12
2019-06-08T05:51:32.202Z,19.00
2019-06-08T05:54:03.180Z,19.11
2019-06-08T05:56:33.359Z,19.19
2019-06-08T05:59:03.705Z,19.20
2019-06-08T06:01:33.849Z,19.31
2019-06-08T06:04:04.095Z,19.36
2019-06-08T06:06:34.229Z,19.40
2019-06-08T06:09:07.469Z,19.45
2019-06-08T06:14:12.025Z,19.63
2019-06-08T06:16:43.082Z,19.69
2019-06-08T06:19:13.398Z,19.63
2019-06-08T06:21:43.552Z,19.54
2019-06-08T06:24:15.317Z,19.61
2019-06-08T06:26:45.905Z,19.63
2019-06-08T06:29:16.045Z,19.75
2019-06-08T06:31:47.732Z,19.89
2019-06-08T06:34:18.011Z,20.04
2019-06-08T06:36:48.151Z,20.15
2019-06-08T06:39:18.311Z,20.16
2019-06-08T06:41:48.457Z,20.28
2019-06-08T06:44:19.052Z,20.38
2019-06-08T06:46:50.141Z,20.38
2019-06-08T06:49:20.343Z,20.22
2019-06-08T06:51:50.600Z,20.35
2019-06-08T06:54:20.708Z,20.48
2019-06-08T06:56:51.896Z,20.58
2019-06-08T06:59:22.196Z,20.59
2019-06-08T07:01:56.948Z,20.76
2019-06-08T07:04:24.482Z,20.99
2019-06-08T07:06:54.635Z,21.18
2019-06-08T07:09:24.767Z,21.38
2019-06-08T07:11:56.683Z,21.58
2019-06-08T07:14:27.285Z,21.91
2019-06-08T07:16:58.286Z,22.08
2019-06-08T07:19:28.565Z,22.12
2019-06-08T07:21:58.992Z,22.35
2019-06-08T07:24:29.146Z,22.51
2019-06-08T07:26:59.351Z,22.97
2019-06-08T07:29:30.478Z,23.15
2019-06-08T07:32:00.629Z,23.54
2019-06-08T07:34:30.773Z,23.89
2019-06-08T07:37:00.925Z,24.15
2019-06-08T07:39:31.097Z,24.52
2019-06-08T07:42:01.268Z,24.70
2019-06-08T07:44:31.409Z,24.65
2019-06-08T07:47:01.606Z,24.84
2019-06-08T07:49:32.333Z,25.04
2019-06-08T07:52:10.195Z,25.15
2019-06-08T07:54:34.388Z,25.23
2019-06-08T07:57:05.631Z,25.27
2019-06-08T07:59:35.792Z,25.48
2019-06-08T08:02:06.003Z,25.48
2019-06-08T08:04:36.147Z,25.66
2019-06-08T08:07:06.294Z,25.87
2019-06-08T08:09:36.464Z,25.91
2019-06-08T08:12:06.749Z,26.00
2019-06-08T08:14:37.060Z,26.42
2019-06-08T08:17:07.361Z,26.87
2019-06-08T08:19:37.521Z,27.13
2019-06-08T08:22:22.246Z,27.64
2019-06-08T08:24:39.498Z,27.89
2019-06-08T08:27:09.652Z,28.00
2019-06-08T08:29:39.795Z,28.29
2019-06-08T08:32:10.102Z,28.03
2019-06-08T08:34:41.081Z,28.53
2019-06-08T08:37:11.236Z,28.43
2019-06-08T08:39:41.868Z,28.93
2019-06-08T08:42:12.021Z,29.24
2019-06-08T08:44:42.150Z,28.78
2019-06-08T08:47:12.311Z,28.86
2019-06-08T08:49:42.455Z,28.96
2019-06-08T08:52:13.001Z,29.18
2019-06-08T08:54:43.236Z,28.83
2019-06-08T08:57:13.419Z,29.17
2019-06-08T08:59:43.655Z,29.15
2019-06-08T09:02:13.936Z,29.83
2019-06-08T09:04:44.054Z,30.06
2019-06-08T09:07:14.203Z,30.55
2019-06-08T09:09:44.312Z,30.79
2019-06-08T09:12:14.453Z,30.85
2019-06-08T09:14:44.814Z,31.10
2019-06-08T09:17:17.917Z,31.20
2019-06-08T09:19:48.141Z,31.51
2019-06-08T09:22:18.886Z,31.91
2019-06-08T09:24:53.014Z,32.31
2019-06-08T09:27:23.635Z,32.26
2019-06-08T09:29:54.970Z,32.25
2019-06-08T09:32:28.090Z,31.99
2019-06-08T09:35:01.533Z,32.18
2019-06-08T09:37:29.686Z,32.48
2019-06-08T09:40:00.871Z,32.84
2019-06-08T09:42:31.663Z,33.03
2019-06-08T09:45:04.238Z,33.34
2019-06-08T09:47:33.716Z,32.65
2019-06-08T09:50:05.709Z,32.01
2019-06-08T09:52:41.056Z,31.43
2019-06-08T09:55:09.222Z,31.06
2019-06-08T09:57:39.629Z,30.74
2019-06-08T10:00:17.811Z,30.26
2019-06-08T10:02:43.031Z,30.01
2019-06-08T10:05:13.369Z,29.65
2019-06-08T10:07:43.542Z,29.62
2019-06-08T10:10:13.965Z,29.84
2019-06-08T10:12:44.109Z,30.52
2019-06-08T10:15:14.510Z,30.56
2019-06-08T10:17:44.624Z,30.56
2019-06-08T10:20:14.950Z,30.81
2019-06-08T10:22:49.912Z,31.07
2019-06-08T10:25:18.308Z,30.87
2019-06-08T10:27:51.602Z,30.57
2019-06-08T10:30:22.003Z,30.26
2019-06-08T10:32:52.189Z,29.80
2019-06-08T10:35:22.330Z,29.72
2019-06-08T10:37:55.188Z,30.06
2019-06-08T10:40:25.570Z,29.91
2019-06-08T10:42:58.360Z,29.45
2019-06-08T10:45:28.604Z,29.00
2019-06-08T10:48:00.830Z,28.99
2019-06-08T10:50:30.752Z,29.03
2019-06-08T10:53:03.995Z,29.11
2019-06-08T10:55:33.822Z,28.62
2019-06-08T10:58:04.491Z,28.49
2019-06-08T11:00:34.708Z,28.42
2019-06-08T11:03:05.831Z,27.99
2019-06-08T11:05:36.929Z,27.99
2019-06-08T11:08:12.956Z,27.82
2019-06-08T11:10:39.050Z,27.73
2019-06-08T11:13:14.885Z,27.58
2019-06-08T11:15:41.201Z,27.62
2019-06-08T11:18:13.483Z,27.66
2019-06-08T11:20:43.233Z,27.75
2019-06-08T11:23:14.354Z,27.79
2019-06-08T11:25:44.465Z,27.97
2019-06-08T11:28:15.240Z,27.92
2019-06-08T11:30:48.067Z,27.73
2019-06-08T11:33:18.375Z,27.65
2019-06-08T11:35:48.508Z,27.80
2019-06-08T11:38:20.265Z,27.54
2019-06-08T11:40:50.570Z,27.52
2019-06-08T11:43:20.710Z,27.58
2019-06-08T11:45:50.905Z,27.47
2019-06-08T11:48:21.049Z,27.70
2019-06-08T11:50:51.187Z,27.51
2019-06-08T11:53:21.306Z,27.52
2019-06-08T11:55:53.044Z,27.69
2019-06-08T11:58:24.409Z,27.57
2019-06-08T12:01:01.798Z,27.63
2019-06-08T12:03:32.368Z,27.62
2019-06-08T12:06:02.509Z,27.58
2019-06-08T12:08:32.796Z,27.60
2019-06-08T12:11:04.367Z,27.70
2019-06-08T12:13:34.926Z,27.91
2019-06-08T12:16:05.219Z,27.90
2019-06-08T12:18:35.377Z,28.04
2019-06-08T12:21:05.658Z,27.97
2019-06-08T12:23:35.757Z,28.03
2019-06-08T12:26:06.144Z,27.89
2019-06-08T12:28:38.185Z,27.89
2019-06-08T12:31:12.001Z,27.75
2019-06-08T12:33:40.251Z,27.68
2019-06-08T12:36:13.564Z,27.72
2019-06-08T12:38:42.194Z,27.60
2019-06-08T12:41:13.936Z,27.46
2019-06-08T12:43:44.184Z,27.44
2019-06-08T12:46:15.046Z,27.51
2019-06-08T12:48:46.328Z,27.15
2019-06-08T12:51:19.054Z,27.12
2019-06-08T12:53:48.299Z,27.12
2019-06-08T12:56:22.221Z,27.07
2019-06-08T12:58:50.655Z,27.06
2019-06-08T13:01:20.805Z,27.00
2019-06-08T13:03:50.947Z,26.85
2019-06-08T13:06:21.072Z,26.63
2019-06-08T13:08:51.243Z,26.74
2019-06-08T13:11:21.385Z,26.67
2019-06-08T13:13:51.479Z,26.52
2019-06-08T13:16:24.307Z,26.54
2019-06-08T13:18:53.474Z,26.51
2019-06-08T13:21:34.174Z,26.41
2019-06-08T13:23:55.434Z,26.28
2019-06-08T13:26:28.623Z,26.20
2019-06-08T13:28:58.322Z,26.09
2019-06-08T13:31:29.266Z,26.03
2019-06-08T13:33:59.404Z,25.99
2019-06-08T13:36:29.764Z,25.85
2019-06-08T13:38:59.987Z,25.84
2019-06-08T13:41:30.191Z,25.63
2019-06-08T13:44:00.371Z,25.48
2019-06-08T13:46:30.858Z,25.40
2019-06-08T13:49:01.027Z,25.48
2019-06-08T13:51:31.176Z,25.36
2019-06-08T13:54:01.333Z,25.36
2019-06-08T13:56:31.469Z,25.30
2019-06-08T13:59:01.635Z,25.29
2019-06-08T14:01:31.796Z,25.29
2019-06-08T14:04:01.949Z,24.91
2019-06-08T14:06:32.083Z,24.69
2019-06-08T14:09:02.246Z,24.74
2019-06-08T14:11:33.503Z,24.41
2019-06-08T14:14:03.752Z,24.67
2019-06-08T14:16:33.970Z,24.45
2019-06-08T14:19:05.108Z,24.36
2019-06-08T14:21:38.655Z,24.48
2019-06-08T14:24:07.775Z,24.37
2019-06-08T14:26:39.088Z,24.31
2019-06-08T14:29:09.267Z,24.48
2019-06-08T14:31:39.385Z,24.26
2019-06-08T14:34:10.409Z,24.25
2019-06-08T14:36:41.078Z,24.13
2019-06-08T14:39:12.674Z,24.15
2019-06-08T14:41:42.967Z,24.19
2019-06-08T14:44:13.140Z,24.18
2019-06-08T14:46:43.411Z,24.08
2019-06-08T14:49:13.561Z,24.00
2019-06-08T14:51:53.005Z,23.95
2019-06-08T14:54:27.183Z,23.91
2019-06-08T14:56:57.567Z,23.74
2019-06-08T14:59:29.965Z,23.82
2019-06-08T15:01:58.981Z,23.74
2019-06-08T15:04:36.292Z,23.97
2019-06-08T15:07:00.968Z,24.15
2019-06-08T15:09:31.100Z,23.68
2019-06-08T15:12:01.238Z,23.78
2019-06-08T15:14:35.080Z,23.81
2019-06-08T15:17:03.502Z,23.61
2019-06-08T15:19:33.673Z,23.44
2019-06-08T15:22:04.021Z,23.34
2019-06-08T15:24:34.203Z,23.34
2019-06-08T15:27:04.539Z,23.14
2019-06-08T15:29:34.712Z,23.06
2019-06-08T15:32:04.853Z,22.78
2019-06-08T15:34:35.151Z,22.80
2019-06-08T15:37:05.401Z,22.47
2019-06-08T15:39:35.568Z,22.18
2019-06-08T15:42:08.096Z,22.09
2019-06-08T15:44:38.318Z,21.94
2019-06-08T15:47:08.665Z,21.92
2019-06-08T15:49:39.262Z,21.69
2019-06-08T15:52:09.617Z,21.60
2019-06-08T15:54:40.997Z,21.58
2019-06-08T15:57:11.533Z,21.52
2019-06-08T15:59:42.105Z,21.29
2019-06-08T16:02:12.268Z,21.17
2019-06-08T16:04:42.509Z,21.17
2019-06-08T16:07:12.806Z,21.02
2019-06-08T16:09:42.943Z,21.01
2019-06-08T16:12:14.136Z,21.02
2019-06-08T16:14:44.267Z,20.96
2019-06-08T16:17:14.619Z,21.01
2019-06-08T16:19:44.818Z,21.09
2019-06-08T16:22:15.085Z,21.09
2019-06-08T16:24:45.479Z,21.00
2019-06-08T16:27:15.599Z,20.97
2019-06-08T16:29:45.823Z,20.94
2019-06-08T16:32:15.969Z,21.03
2019-06-08T16:34:46.088Z,21.05
2019-06-08T16:37:16.354Z,21.07
2019-06-08T16:39:46.589Z,21.13
2019-06-08T16:42:16.761Z,21.17
2019-06-08T16:44:46.908Z,21.24
2019-06-08T16:47:17.058Z,21.29
2019-06-08T16:49:47.222Z,21.38
2019-06-08T16:52:17.462Z,21.44
2019-06-08T16:54:47.544Z,21.35
2019-06-08T16:57:17.664Z,21.35
2019-06-08T16:59:47.899Z,21.34
2019-06-08T17:02:18.022Z,21.45
2019-06-08T17:04:48.144Z,21.37
2019-06-08T17:07:18.279Z,21.42
2019-06-08T17:09:48.415Z,21.44
2019-06-08T17:12:18.573Z,21.40
2019-06-08T17:14:48.657Z,21.47
2019-06-08T17:17:18.986Z,21.51
2019-06-08T17:19:49.117Z,21.51
2019-06-08T17:22:19.278Z,21.50
2019-06-08T17:24:49.406Z,21.45
2019-06-08T17:27:26.662Z,21.41
2019-06-08T17:29:51.371Z,21.40
2019-06-08T17:32:21.496Z,21.38
2019-06-08T17:34:51.653Z,21.39
2019-06-08T17:37:21.771Z,21.33
2019-06-08T17:39:51.904Z,21.36
2019-06-08T17:42:22.027Z,21.36
2019-06-08T17:44:52.168Z,21.32
2019-06-08T17:47:24.654Z,21.28
2019-06-08T17:49:54.114Z,21.18
2019-06-08T17:52:27.708Z,21.17
2019-06-08T17:54:56.056Z,21.11
2019-06-08T17:57:41.196Z,21.03
2019-06-08T17:59:57.983Z,20.98
2019-06-08T18:02:31.198Z,21.02
2019-06-08T18:04:59.968Z,21.06
2019-06-08T18:07:30.094Z,21.06
2019-06-08T18:10:00.236Z,20.99
2019-06-08T18:12:30.361Z,20.82
2019-06-08T18:15:00.517Z,20.89
2019-06-08T18:17:33.992Z,20.75
2019-06-08T18:20:04.566Z,20.67
2019-06-08T18:22:34.703Z,20.68
2019-06-08T18:25:07.594Z,20.56
2019-06-08T18:27:39.167Z,20.57
2019-06-08T18:30:11.757Z,20.63
2019-06-08T18:32:42.445Z,20.67
2019-06-08T18:35:13.567Z,20.61
2019-06-08T18:37:44.164Z,20.66
2019-06-08T18:40:18.587Z,20.71
2019-06-08T18:42:49.028Z,20.70
2019-06-08T18:45:19.549Z,20.64
2019-06-08T18:47:49.680Z,20.56
2019-06-08T18:50:19.833Z,20.52
2019-06-08T18:52:49.958Z,20.55
2019-06-08T18:55:20.113Z,20.56
2019-06-08T18:57:50.274Z,20.56
2019-06-08T19:00:24.181Z,20.55
2019-06-08T19:02:54.835Z,20.55
2019-06-08T19:05:27.969Z,20.52
2019-06-08T19:07:58.515Z,20.48
2019-06-08T19:10:33.124Z,20.39
2019-06-08T19:13:03.273Z,20.39
2019-06-08T19:15:41.708Z,20.39
2019-06-08T19:18:08.368Z,20.37
2019-06-08T19:20:43.104Z,20.33
2019-06-08T19:23:10.379Z,20.28
2019-06-08T19:25:44.042Z,20.24
2019-06-08T19:28:12.349Z,20.18
2019-06-08T19:30:44.418Z,20.12
2019-06-08T19:33:14.318Z,20.06
2019-06-08T19:35:44.627Z,20.02
2019-06-08T19:38:18.122Z,19.96
2019-06-08T19:40:48.371Z,19.91
2019-06-08T19:43:18.695Z,19.84
2019-06-08T19:45:50.391Z,19.80
2019-06-08T19:48:20.867Z,19.80
2019-06-08T19:50:54.100Z,19.76
2019-06-08T19:53:22.878Z,19.74
2019-06-08T19:55:54.112Z,19.66
2019-06-08T19:58:24.431Z,19.67
2019-06-08T20:00:55.070Z,19.67
2019-06-08T20:03:27.513Z,19.64
2019-06-08T20:05:57.164Z,19.56
2019-06-08T20:08:28.658Z,19.57
2019-06-08T20:10:59.144Z,19.60
2019-06-08T20:13:29.262Z,19.48
2019-06-08T20:16:02.190Z,19.38
2019-06-08T20:18:32.649Z,19.40
2019-06-08T20:21:02.802Z,19.38
2019-06-08T20:23:32.920Z,19.34
2019-06-08T20:26:03.086Z,19.33
2019-06-08T20:28:33.219Z,19.34
2019-06-08T20:31:04.434Z,19.31
2019-06-08T20:33:34.558Z,19.30
2019-06-08T20:36:04.697Z,19.22
2019-06-08T20:38:38.815Z,19.19
2019-06-08T20:41:07.604Z,19.19
2019-06-08T20:43:40.746Z,19.15
2019-06-08T20:46:09.639Z,19.08
2019-06-08T20:48:39.769Z,19.00
2019-06-08T20:51:10.877Z,18.93
2019-06-08T20:53:40.997Z,18.87
2019-06-08T20:56:11.164Z,18.76
2019-06-08T20:58:41.305Z,18.64
2019-06-08T21:01:11.439Z,18.56
2019-06-08T21:03:41.579Z,18.45
2019-06-08T21:06:11.736Z,18.37
2019-06-08T21:08:41.871Z,18.27
2019-06-08T21:11:12.028Z,18.18
2019-06-08T21:13:42.151Z,18.06
2019-06-08T21:16:12.291Z,17.96
2019-06-08T21:18:42.604Z,17.86
2019-06-08T21:21:12.744Z,17.73
2019-06-08T21:23:42.870Z,17.67
2019-06-08T21:26:13.021Z,17.60
2019-06-08T21:28:43.137Z,17.42
2019-06-08T21:31:13.276Z,17.36
2019-06-08T21:33:43.388Z,17.26
2019-06-08T21:36:13.562Z,17.13
2019-06-08T21:38:43.690Z,17.10
2019-06-08T21:41:13.841Z,17.14
2019-06-08T21:43:43.988Z,17.10
2019-06-08T21:46:14.136Z,17.10
2019-06-08T21:48:44.256Z,17.04
2019-06-08T21:51:14.393Z,16.96
2019-06-08T21:53:46.995Z,16.96
2019-06-08T21:56:18.176Z,17.00
2019-06-08T21:58:49.729Z,16.93
2019-06-08T22:01:20.714Z,16.90
2019-06-08T22:03:51.689Z,16.87
2019-06-08T22:06:21.853Z,16.87
2019-06-08T22:08:51.996Z,16.80
2019-06-08T22:11:22.108Z,16.70
2019-06-08T22:13:52.794Z,16.74
2019-06-08T22:16:22.973Z,16.70
2019-06-08T22:18:54.892Z,16.68
2019-06-08T22:21:25.048Z,16.68
2019-06-08T22:23:57.776Z,16.68
2019-06-08T22:26:28.005Z,16.59
2019-06-08T22:28:59.894Z,16.61
2019-06-08T22:31:30.143Z,16.54
2019-06-08T22:34:02.035Z,16.57
2019-06-08T22:36:32.144Z,16.54
2019-06-08T22:39:03.771Z,16.53
2019-06-08T22:41:37.271Z,16.52
2019-06-08T22:44:08.316Z,16.62
2019-06-08T22:46:38.694Z,16.68
2019-06-08T22:49:08.836Z,16.61
2019-06-08T22:51:39.005Z,16.58
2019-06-08T22:54:10.209Z,16.64
2019-06-08T22:56:40.372Z,16.73
2019-06-08T22:59:10.502Z,16.61
2019-06-08T23:01:40.640Z,16.45
2019-06-08T23:04:10.786Z,16.51
2019-06-08T23:06:40.903Z,16.34
2019-06-08T23:09:11.029Z,16.34
2019-06-08T23:11:41.157Z,16.26
2019-06-08T23:14:13.580Z,16.26
2019-06-08T23:16:43.812Z,16.14
2019-06-08T23:19:14.132Z,16.14
2019-06-08T23:21:44.270Z,16.15
2019-06-08T23:24:14.388Z,16.07
2019-06-08T23:26:44.516Z,16.22
2019-06-08T23:29:14.643Z,16.10
2019-06-08T23:31:44.791Z,16.06
2019-06-08T23:34:14.918Z,16.05
2019-06-08T23:36:57.614Z,15.97
2019-06-08T23:39:18.028Z,15.98
2019-06-08T23:41:48.446Z,15.88
2019-06-08T23:44:18.671Z,15.85
2019-06-08T23:46:48.823Z,15.83
2019-06-08T23:49:18.944Z,15.78
2019-06-08T23:51:49.075Z,15.76
2019-06-08T23:54:19.208Z,15.71
2019-06-08T23:56:49.326Z,15.73
2019-06-08T23:59:19.443Z,15.75
